createdAt,value
2022-09-23T00:03:29.096Z,12.00
2022-09-23T00:08:33.736Z,11.90
2022-09-23T00:13:37.498Z,11.90
2022-09-23T00:18:40.757Z,11.80
2022-09-23T00:23:45.226Z,11.80
2022-09-23T00:28:48.979Z,11.70
2022-09-23T00:33:55.640Z,11.70
2022-09-23T00:39:00.167Z,11.60
2022-09-23T00:44:23.940Z,11.60
2022-09-23T00:49:31.574Z,11.50
2022-09-23T00:54:34.650Z,11.40
2022-09-23T00:59:38.206Z,11.40
2022-09-23T01:04:43.603Z,11.30
2022-09-23T01:09:47.922Z,11.30
2022-09-23T01:14:57.484Z,11.30
2022-09-23T01:20:22.108Z,11.20
2022-09-23T01:25:49.311Z,11.10
2022-09-23T01:30:58.956Z,11.10
2022-09-23T01:36:14.696Z,11.00
2022-09-23T01:41:40.552Z,11.00
2022-09-23T01:46:50.589Z,10.90
2022-09-23T01:51:58.231Z,10.80
2022-09-23T01:57:05.326Z,10.80
2022-09-23T02:02:15.220Z,10.80
2022-09-23T02:07:22.997Z,10.70
2022-09-23T02:12:29.475Z,10.60
2022-09-23T02:17:40.602Z,10.60
2022-09-23T02:22:54.967Z,10.50
2022-09-23T02:28:04.924Z,10.50
2022-09-23T02:33:18.461Z,10.40
2022-09-23T02:38:30.243Z,10.40
2022-09-23T02:43:39.079Z,10.30
2022-09-23T02:48:49.530Z,10.30
2022-09-23T02:53:52.598Z,10.20
2022-09-23T02:58:56.615Z,10.20
2022-09-23T03:04:13.114Z,10.10
2022-09-23T03:09:26.698Z,10.10
2022-09-23T03:14:37.670Z,10.10
2022-09-23T03:19:47.764Z,10.00
2022-09-23T03:24:54.141Z,10.00
2022-09-23T03:29:58.331Z,10.00
2022-09-23T03:35:04.888Z,10.00
2022-09-23T03:40:13.189Z,10.00
2022-09-23T03:45:20.239Z,10.00
2022-09-23T03:50:24.740Z,9.90
2022-09-23T03:55:27.816Z,9.90
2022-09-23T04:00:30.697Z,9.90
2022-09-23T04:05:35.882Z,9.90
2022-09-23T04:10:42.292Z,9.90
2022-09-23T04:15:45.192Z,9.80
2022-09-23T04:20:49.922Z,9.70
2022-09-23T04:25:53.091Z,9.70
2022-09-23T04:30:57.746Z,9.70
2022-09-23T04:36:02.440Z,9.70
2022-09-23T04:41:05.735Z,9.60
2022-09-23T04:46:11.037Z,9.70
2022-09-23T04:51:17.536Z,9.60
2022-09-23T04:56:22.315Z,9.60
2022-09-23T05:01:27.483Z,9.60
2022-09-23T05:06:32.983Z,9.60
2022-09-23T05:11:36.563Z,9.60
2022-09-23T05:16:39.505Z,9.60
2022-09-23T05:21:43.825Z,9.60
2022-09-23T05:26:46.705Z,9.50
2022-09-23T05:31:49.645Z,9.50
2022-09-23T05:36:54.305Z,9.50
2022-09-23T05:41:57.678Z,9.50
2022-09-23T05:47:00.626Z,9.40
2022-09-23T05:52:05.073Z,9.40
2022-09-23T05:57:07.968Z,9.40
2022-09-23T06:02:11.117Z,9.40
2022-09-23T06:07:15.404Z,9.50
2022-09-23T06:12:18.315Z,9.50
2022-09-23T06:17:21.198Z,9.50
2022-09-23T06:22:26.786Z,9.60
2022-09-23T06:27:29.642Z,9.60
2022-09-23T06:32:32.554Z,9.70
2022-09-23T06:37:36.791Z,9.70
2022-09-23T06:42:39.673Z,9.80
2022-09-23T06:47:43.313Z,9.80
2022-09-23T06:52:56.196Z,9.90
2022-09-23T06:57:59.694Z,9.90
2022-09-23T07:03:03.490Z,10.00
2022-09-23T07:08:10.374Z,10.10
2022-09-23T07:13:16.240Z,10.20
2022-09-23T07:18:19.741Z,10.30
2022-09-23T07:23:24.028Z,10.40
2022-09-23T07:28:29.172Z,10.50
2022-09-23T07:33:33.400Z,10.50
2022-09-23T07:38:42.796Z,10.60
2022-09-23T07:43:48.931Z,10.70
2022-09-23T07:48:53.044Z,10.80
2022-09-23T07:53:57.974Z,11.00
2022-09-23T07:59:01.710Z,11.10
2022-09-23T08:04:06.839Z,11.30
2022-09-23T08:09:11.771Z,11.60
2022-09-23T08:14:17.810Z,11.80
2022-09-23T08:19:21.176Z,12.00
2022-09-23T08:24:26.731Z,12.20
2022-09-23T08:29:29.735Z,12.50
2022-09-23T08:34:32.616Z,12.80
2022-09-23T08:39:36.866Z,13.10
2022-09-23T08:44:48.013Z,13.40
2022-09-23T08:50:02.233Z,13.70
2022-09-23T08:55:12.480Z,14.10
2022-09-23T09:00:21.000Z,14.40
2022-09-23T09:05:27.517Z,14.70
2022-09-23T09:10:41.655Z,15.00
2022-09-23T09:15:50.858Z,15.20
2022-09-23T09:21:00.607Z,15.40
2022-09-23T09:26:06.939Z,15.60
2022-09-23T09:31:24.154Z,15.80
2022-09-23T09:36:36.488Z,16.00
2022-09-23T09:41:42.640Z,16.20
2022-09-23T09:46:56.682Z,16.40
2022-09-23T09:52:14.279Z,16.60
2022-09-23T09:57:32.096Z,16.80
2022-09-23T10:02:40.648Z,17.00
2022-09-23T10:07:43.527Z,17.20
2022-09-23T10:12:48.999Z,17.40
2022-09-23T10:17:52.433Z,17.60
2022-09-23T10:22:56.670Z,17.90
2022-09-23T10:28:30.717Z,18.10
2022-09-23T10:33:33.664Z,18.30
2022-09-23T10:38:36.680Z,18.60
2022-09-23T10:44:05.826Z,18.70
2022-09-23T10:49:34.130Z,19.00
2022-09-23T10:54:50.273Z,19.30
2022-09-23T11:00:02.863Z,19.50
2022-09-23T11:05:20.802Z,19.70
2022-09-23T11:10:51.977Z,19.90
2022-09-23T11:16:06.592Z,20.00
2022-09-23T11:21:24.925Z,20.20
2022-09-23T11:26:36.608Z,20.40
2022-09-23T11:31:56.149Z,20.50
2022-09-23T11:37:05.786Z,20.60
2022-09-23T11:42:18.854Z,20.70
2022-09-23T11:47:27.336Z,20.90
2022-09-23T11:52:34.842Z,21.00
2022-09-23T11:57:48.928Z,21.20
2022-09-23T12:03:06.321Z,21.30
2022-09-23T12:08:17.876Z,21.50
2022-09-23T12:13:27.168Z,21.60
2022-09-23T12:18:43.876Z,21.70
2022-09-23T12:24:04.742Z,21.90
2022-09-23T12:29:11.685Z,22.00
2022-09-23T12:34:25.977Z,22.00
2022-09-23T12:39:32.264Z,22.10
2022-09-23T12:44:39.164Z,22.20
2022-09-23T12:49:44.231Z,22.30
2022-09-23T12:54:48.547Z,22.50
2022-09-23T12:59:58.258Z,22.60
2022-09-23T13:05:32.931Z,22.70
2022-09-23T13:10:43.197Z,22.80
2022-09-23T13:15:46.674Z,23.00
2022-09-23T13:20:52.606Z,23.20
2022-09-23T13:25:57.919Z,23.40
2022-09-23T13:31:05.567Z,23.40
2022-09-23T13:36:14.501Z,23.60
2022-09-23T13:41:20.033Z,23.70
2022-09-23T13:46:25.705Z,23.70
2022-09-23T13:51:32.668Z,23.80
2022-09-23T13:56:37.750Z,23.90
2022-09-23T14:01:40.647Z,23.90
2022-09-23T14:06:44.996Z,24.10
2022-09-23T14:11:48.020Z,24.20
2022-09-23T14:16:52.694Z,24.20
2022-09-23T14:21:58.811Z,24.30
2022-09-23T14:27:08.108Z,24.40
2022-09-23T14:32:14.577Z,24.40
2022-09-23T14:37:43.802Z,24.40
2022-09-23T14:42:49.844Z,24.30
2022-09-23T14:47:57.735Z,24.20
2022-09-23T14:53:02.781Z,24.10
2022-09-23T14:58:16.570Z,24.00
2022-09-23T15:03:21.027Z,23.90
2022-09-23T15:08:28.506Z,23.90
2022-09-23T15:13:34.483Z,23.80
2022-09-23T15:18:39.357Z,23.70
2022-09-23T15:23:48.556Z,23.70
2022-09-23T15:28:54.065Z,23.60
2022-09-23T15:33:57.167Z,23.50
2022-09-23T15:39:06.256Z,23.30
2022-09-23T15:44:13.420Z,23.20
2022-09-23T15:49:29.832Z,23.00
2022-09-23T15:54:34.190Z,22.90
2022-09-23T15:59:38.150Z,22.70
2022-09-23T16:04:41.028Z,22.60
2022-09-23T16:09:45.237Z,22.40
2022-09-23T16:14:48.147Z,22.30
2022-09-23T16:19:51.012Z,22.10
2022-09-23T16:24:55.481Z,22.00
2022-09-23T16:29:58.349Z,21.80
2022-09-23T16:35:01.237Z,21.70
2022-09-23T16:40:22.683Z,21.60
2022-09-23T16:45:26.145Z,21.40
2022-09-23T16:50:29.743Z,21.30
2022-09-23T16:55:33.972Z,21.20
2022-09-23T17:00:54.655Z,21.10
2022-09-23T17:05:57.748Z,21.00
2022-09-23T17:11:02.126Z,20.90
2022-09-23T17:16:05.234Z,20.80
2022-09-23T17:21:08.958Z,20.60
2022-09-23T17:26:13.922Z,20.40
2022-09-23T17:31:16.861Z,20.30
2022-09-23T17:36:21.220Z,20.10
2022-09-23T17:41:25.461Z,20.00
2022-09-23T17:46:30.900Z,19.90
2022-09-23T17:51:33.774Z,19.80
2022-09-23T17:56:38.021Z,19.70
2022-09-23T18:01:40.932Z,19.50
2022-09-23T18:06:43.803Z,19.40
2022-09-23T18:11:49.276Z,19.30
2022-09-23T18:16:53.542Z,19.20
2022-09-23T18:21:57.427Z,19.10
2022-09-23T18:27:02.004Z,19.10
2022-09-23T18:32:05.021Z,18.90
2022-09-23T18:37:15.352Z,18.80
2022-09-23T18:42:20.463Z,18.70
2022-09-23T18:47:37.411Z,18.60
2022-09-23T18:52:40.300Z,18.50
2022-09-23T18:57:45.070Z,18.50
2022-09-23T19:02:48.016Z,18.40
2022-09-23T19:07:50.904Z,18.20
2022-09-23T19:12:55.157Z,18.20
2022-09-23T19:17:58.004Z,18.10
2022-09-23T19:23:00.845Z,18.00
2022-09-23T19:28:08.252Z,18.00
2022-09-23T19:33:11.116Z,17.90
2022-09-23T19:38:14.371Z,17.90
2022-09-23T19:43:20.144Z,17.80
2022-09-23T19:48:23.244Z,17.70
2022-09-23T19:53:28.298Z,17.60
2022-09-23T19:58:33.027Z,17.50
2022-09-23T20:03:36.111Z,17.50
2022-09-23T20:08:39.564Z,17.40
2022-09-23T20:13:45.764Z,17.40
2022-09-23T20:18:53.128Z,17.30
2022-09-23T20:23:56.223Z,17.20
2022-09-23T20:29:01.472Z,17.20
2022-09-23T20:34:05.838Z,17.10
2022-09-23T20:39:09.880Z,17.00
2022-09-23T20:44:14.169Z,17.00
2022-09-23T20:49:18.022Z,16.90
2022-09-23T20:54:20.982Z,16.90
2022-09-23T20:59:25.319Z,16.70
2022-09-23T21:04:28.263Z,16.60
2022-09-23T21:09:31.933Z,16.50
2022-09-23T21:14:36.157Z,16.40
2022-09-23T21:19:39.038Z,16.30
2022-09-23T21:30:07.440Z,16.10
2022-09-23T21:35:10.892Z,16.00
2022-09-23T21:40:31.750Z,16.00
2022-09-23T21:45:35.979Z,15.90
2022-09-23T21:50:40.869Z,15.90
2022-09-23T21:55:43.765Z,15.80
2022-09-23T22:00:48.032Z,15.70
2022-09-23T22:06:02.498Z,15.60
2022-09-23T22:11:07.592Z,15.50
2022-09-23T22:16:16.555Z,15.40
2022-09-23T22:21:20.508Z,15.20
2022-09-23T22:26:23.500Z,15.10
2022-09-23T22:31:50.383Z,15.10
2022-09-23T22:36:53.338Z,15.10
2022-09-23T22:41:57.066Z,15.00
2022-09-23T22:47:02.055Z,14.90
2022-09-23T22:52:08.339Z,14.90
2022-09-23T22:57:11.524Z,14.80
2022-09-23T23:02:16.450Z,14.70
2022-09-23T23:07:21.553Z,14.70
2022-09-23T23:12:24.527Z,14.60
2022-09-23T23:17:29.801Z,14.60
2022-09-23T23:22:32.704Z,14.50
2022-09-23T23:27:35.980Z,14.40
2022-09-23T23:32:40.632Z,14.30
2022-09-23T23:37:43.533Z,14.30
2022-09-23T23:42:47.015Z,14.20
2022-09-23T23:47:51.254Z,14.20
2022-09-23T23:52:54.152Z,14.10
2022-09-23T23:57:57.199Z,14.10
